• Join FlightAware (Why Join?)
  • Login
  • US Flag 
03:04PM EDT


 

Airport Tracker/Info


-or-


 

Live Flight TrackerFlight Track Log ✈ EJA922 ✈ 02-Jul-2013 ✈ KUGN - KIAD

Flight Track Log - Related Links

Times and Time Zones

All times are in EDT time to prevent confusion due to time zone crossing. See the EJA922 flight status page for this flight to view local times or setup timezone preferences in your user account.

Time Position Orientation Groundspeed Altitude Reporting Facility
EDT Latitude Longitude Course Direction KTS MPH feet Rate Location/Type
09:52PM 42.3878 -87.7386 122° Southeast 244 281 4,500  Level Chicago Center
09:53PM 42.3228 -87.7092 161° South 260 299 6,600 2,640 Climbing Chicago Center
09:54PM 42.2408 -87.6844 167° South 278 320 10,000 3,180 Climbing Chicago Center
09:55PM 42.1694 -87.6400 155° Southeast 293 337 13,200 2,820 Climbing Chicago Center
09:56PM 42.1297 -87.5375 118° Southeast 307 353 15,900 2,040 Climbing Chicago Center
09:57PM 42.0875 -87.4267 117° Southeast 328 377 17,500 1,140 Climbing Chicago Center
09:58PM 42.0561 -87.2825 106° East 403 464 18,300 900 Climbing Chicago Center
09:59PM 42.0319 -87.1231 101° East 431 496 19,400 1,020 Climbing Chicago Center
10:00PM 42.0086 -86.9592 101° East 446 513 20,500 1,260 Climbing Chicago Center
10:01PM 41.9800 -86.7589 101° East 455 524 22,100 1,380 Climbing Chicago Center
10:02PM 41.9553 -86.6028 102° East 460 529 23,400 1,320 Climbing Chicago Center
10:03PM 41.9300 -86.4328 101° East 464 534 24,900 1,440 Climbing Chicago Center
10:04PM 41.9039 -86.2608 101° East 468 539 26,400 1,500 Climbing Chicago Center
10:05PM 41.8767 -86.0872 102° East 475 547 28,000 1,500 Climbing Chicago Center
10:06PM 41.8500 -85.9131 102° East 477 549 29,500 1,440 Climbing Chicago Center
10:07PM 41.8214 -85.7364 102° East 483 556 31,000 1,380 Climbing Chicago Center
10:08PM 41.7867 -85.5158 102° East 500 575 32,400 1,200 Climbing Chicago Center
10:09PM 41.7631 -85.3636 102° East 508 585 33,500 1,140 Climbing Chicago Center
10:10PM 41.7317 -85.1728 102° East 512 589 34,800 1,380 Climbing Chicago Center
10:11PM 41.6939 -84.9447 102° East 520 598 36,400 1,440 Climbing Chicago Center
10:12PM 41.6650 -84.7547 101° East 521 600 37,800 1,260 Climbing Chicago Center
10:13PM 41.6575 -84.5606 93° East 524 603 39,000 660 Climbing Chicago Center
10:14PM 41.6503 -84.4017 93° East 516 594 39,000  Level Cleveland Center
10:15PM 41.6392 -84.2344 95° East 522 601 39,000  Level Cleveland Center
10:16PM 41.6306 -84.0422 93° East 516 594 39,000  Level Cleveland Center
10:17PM 41.6003 -83.8600 102° East 516 594 39,000  Level Cleveland Center
10:18PM 41.5292 -83.7175 124° Southeast 469 540 39,000  Level Cleveland Center
10:19PM 41.4581 -83.5700 123° Southeast 469 540 39,000  Level Cleveland Center
10:20PM 41.3867 -83.4256 123° Southeast 474 545 39,000  Level Cleveland Center
10:21PM 41.3172 -83.2817 123° Southeast 469 540 39,000  Level Cleveland Center
10:22PM 41.2475 -83.1406 123° Southeast 469 540 39,000  Level Cleveland Center
10:23PM 41.1797 -83.0000 123° Southeast 462 532 39,000  Level Cleveland Center
10:24PM 41.1097 -82.8594 123° Southeast 457 526 39,000  Level Cleveland Center
10:25PM 41.0436 -82.7222 123° Southeast 451 519 39,000  Level Cleveland Center
10:27PM 40.9125 -82.4625 124° Southeast 436 502 39,000  Level Cleveland Center
10:28PM 40.8439 -82.3261 124° Southeast 436 502 39,000  Level Cleveland Center
10:28PM 40.8150 -82.2617 121° Southeast 446 513 39,000  Level Indianapolis Center
10:29PM 40.7447 -82.1244 124° Southeast 448 516 39,000  Level Indianapolis Center
10:30PM 40.6756 -81.9875 124° Southeast 449 517 39,000  Level Indianapolis Center
10:31PM 40.6058 -81.8497 124° Southeast 450 518 39,000  Level Indianapolis Center
10:32PM 40.5356 -81.7128 124° Southeast 450 518 39,000  Level Indianapolis Center
10:33PM 40.4728 -81.5656 119° Southeast 458 527 39,000  Level Indianapolis Center
10:34PM 40.4103 -81.4175 119° Southeast 461 531 39,000  Level Indianapolis Center
10:35PM 40.3486 -81.2692 119° Southeast 461 531 39,000  Level Indianapolis Center
10:36PM 40.2858 -81.1219 119° Southeast 461 531 39,000  Level Indianapolis Center
10:37PM 40.2222 -80.9739 119° Southeast 462 532 39,000  Level Indianapolis Center
10:38PM 40.1581 -80.8253 119° Southeast 466 536 39,000  Level Indianapolis Center
10:39PM 40.0944 -80.6764 119° Southeast 465 535 39,000  Level Indianapolis Center
10:40PM 40.0303 -80.5300 120° Southeast 463 533 39,000  Level Indianapolis Center
10:41PM 39.9667 -80.3836 120° Southeast 463 533 39,000 -600 Level Indianapolis Center
10:43PM 39.8461 -80.0994 119° Southeast 462 532 37,300 -1,440 Descending Washington Center
10:44PM 39.7828 -79.9522 119° Southeast 462 532 34,900 -2,580 Descending Washington Center
10:45PM 39.7150 -79.8053 121° Southeast 462 532 32,300 -2,640 Descending Washington Center
10:46PM 39.6472 -79.6531 120° Southeast 473 544 29,700 -2,580 Descending Washington Center
10:47PM 39.5814 -79.5039 120° Southeast 479 551 27,200 -1,380 Descending Washington Center
10:48PM 39.5153 -79.3578 120° Southeast 473 544 27,000 -900 Descending Washington Center
10:49PM 39.4467 -79.2117 121° Southeast 473 544 25,500 -2,100 Descending Washington Center
10:50PM 39.4100 -79.0433 106° East 473 544 22,900 -2,340 Descending Washington Center
10:51PM 39.3792 -78.8833 104° East 473 544 20,800 -2,280 Descending Washington Center
10:52PM 39.3519 -78.7239 102° East 460 529 18,400 -2,400 Descending Washington Center
10:53PM 39.3267 -78.5753 102° East 446 513 16,100 -2,100 Descending Washington Center
10:54PM 39.3008 -78.4400 104° East 413 475 14,300 -1,860 Descending Washington Center
10:55PM 39.2578 -78.3150 114° Southeast 391 450 12,400 -1,920 Descending Washington Center
10:56PM 39.2372 -78.2069 104° East 347 399 10,500 -1,920 Descending Washington Center
10:57PM 39.2272 -78.0967 97° East 317 365 8,600 -1,680 Descending Washington Center
10:58PM 39.2189 -77.9919 96° East 304 350 7,200 -1,440 Descending Washington Center
10:59PM 39.2128 -77.8767 94° East 299 344 5,800 -1,140 Descending Washington Center
11:00PM 39.2106 -77.7722 92° East 294 338 5,000 -420 Descending Washington Center
11:01PM 39.2081 -77.6675 92° East 294 338 5,000 -540 Level Washington Center
11:02PM 39.1953 -77.5733 100° East 284 327 4,000 -540 Descending Washington Center
11:03PM 39.1833 -77.4833 100° East 257 296 4,000 -600 Level Potomac TRACON
11:05PM 39.0405 -77.4968 165° South  Level FlightAware Approximate
11:06PM 39.0333 -77.4333 165° South 189 217 1,700  Level Potomac TRACON
11:07PM 39.0000 -77.4333 180° South 152 175 1,100 -720 Descending Potomac TRACON
11:09PM 38.9474 -77.4599 159° South  Level Estimated
11:16PM 38.9474 -77.4599 159° South  Level Estimated
11:17PM 38.9474 -77.4599 159° South  Level Estimated
11:18PM 38.9474 -77.4599 159° South  Level Estimated